sensor_id;sensor_type;location;lat;lon;timestamp;P1;durP1;ratioP1;P2;durP2;ratioP2
17753;SDS011;8999;48.994;9.150;2023-12-22T00:02:23;1.30;;;0.60;;
17753;SDS011;8999;48.994;9.150;2023-12-22T00:04:56;2.40;;;0.68;;
17753;SDS011;8999;48.994;9.150;2023-12-22T00:07:27;2.38;;;0.80;;
17753;SDS011;8999;48.994;9.150;2023-12-22T00:09:59;3.35;;;1.23;;
17753;SDS011;8999;48.994;9.150;2023-12-22T00:12:36;4.20;;;0.90;;
17753;SDS011;8999;48.994;9.150;2023-12-22T00:15:08;2.17;;;1.00;;
17753;SDS011;8999;48.994;9.150;2023-12-22T00:17:40;1.70;;;0.70;;
17753;SDS011;8999;48.994;9.150;2023-12-22T00:20:12;2.75;;;2.13;;
17753;SDS011;8999;48.994;9.150;2023-12-22T00:22:46;2.63;;;1.55;;
17753;SDS011;8999;48.994;9.150;2023-12-22T00:25:18;1.90;;;0.88;;
17753;SDS011;8999;48.994;9.150;2023-12-22T00:27:51;1.83;;;0.80;;
17753;SDS011;8999;48.994;9.150;2023-12-22T00:30:26;1.90;;;0.80;;
17753;SDS011;8999;48.994;9.150;2023-12-22T00:32:58;3.53;;;1.15;;
17753;SDS011;8999;48.994;9.150;2023-12-22T00:35:30;1.83;;;0.90;;
17753;SDS011;8999;48.994;9.150;2023-12-22T00:38:08;3.03;;;1.20;;
17753;SDS011;8999;48.994;9.150;2023-12-22T00:40:40;2.10;;;1.17;;
17753;SDS011;8999;48.994;9.150;2023-12-22T00:43:13;3.42;;;1.10;;
17753;SDS011;8999;48.994;9.150;2023-12-22T00:45:45;2.78;;;1.77;;
17753;SDS011;8999;48.994;9.150;2023-12-22T00:48:16;5.75;;;3.38;;
17753;SDS011;8999;48.994;9.150;2023-12-22T00:50:48;3.70;;;1.95;;
17753;SDS011;8999;48.994;9.150;2023-12-22T00:53:19;4.55;;;1.67;;
17753;SDS011;8999;48.994;9.150;2023-12-22T00:55:51;3.70;;;1.15;;
17753;SDS011;8999;48.994;9.150;2023-12-22T00:58:24;2.08;;;1.23;;
17753;SDS011;8999;48.994;9.150;2023-12-22T01:00:56;2.72;;;0.98;;
17753;SDS011;8999;48.994;9.150;2023-12-22T01:03:28;3.78;;;1.27;;
17753;SDS011;8999;48.994;9.150;2023-12-22T01:05:59;1.98;;;0.82;;
17753;SDS011;8999;48.994;9.150;2023-12-22T01:08:31;6.00;;;1.00;;
17753;SDS011;8999;48.994;9.150;2023-12-22T01:11:03;2.28;;;0.98;;
17753;SDS011;8999;48.994;9.150;2023-12-22T01:13:36;1.30;;;1.05;;
17753;SDS011;8999;48.994;9.150;2023-12-22T01:16:07;1.80;;;0.93;;
17753;SDS011;8999;48.994;9.150;2023-12-22T01:18:39;4.10;;;1.23;;
17753;SDS011;8999;48.994;9.150;2023-12-22T01:21:12;2.55;;;0.88;;
17753;SDS011;8999;48.994;9.150;2023-12-22T01:23:44;2.15;;;1.10;;
17753;SDS011;8999;48.994;9.150;2023-12-22T01:26:16;4.90;;;1.30;;
17753;SDS011;8999;48.994;9.150;2023-12-22T01:28:49;2.40;;;1.08;;
17753;SDS011;8999;48.994;9.150;2023-12-22T01:31:20;2.70;;;1.17;;
17753;SDS011;8999;48.994;9.150;2023-12-22T01:33:52;3.40;;;0.90;;
17753;SDS011;8999;48.994;9.150;2023-12-22T01:36:26;3.30;;;0.90;;
17753;SDS011;8999;48.994;9.150;2023-12-22T01:38:57;2.65;;;0.93;;
17753;SDS011;8999;48.994;9.150;2023-12-22T01:41:29;4.60;;;1.63;;
17753;SDS011;8999;48.994;9.150;2023-12-22T01:44:02;2.78;;;1.40;;
17753;SDS011;8999;48.994;9.150;2023-12-22T01:46:34;4.82;;;1.30;;
17753;SDS011;8999;48.994;9.150;2023-12-22T01:49:07;4.95;;;1.40;;
17753;SDS011;8999;48.994;9.150;2023-12-22T01:51:39;4.47;;;1.38;;
17753;SDS011;8999;48.994;9.150;2023-12-22T01:54:11;2.83;;;1.00;;
17753;SDS011;8999;48.994;9.150;2023-12-22T01:56:44;6.80;;;1.50;;
17753;SDS011;8999;48.994;9.150;2023-12-22T01:59:17;3.22;;;1.30;;
17753;SDS011;8999;48.994;9.150;2023-12-22T02:01:49;7.03;;;1.67;;
17753;SDS011;8999;48.994;9.150;2023-12-22T02:04:21;7.10;;;1.52;;
17753;SDS011;8999;48.994;9.150;2023-12-22T02:06:53;6.75;;;1.52;;
17753;SDS011;8999;48.994;9.150;2023-12-22T02:09:25;6.85;;;1.38;;
17753;SDS011;8999;48.994;9.150;2023-12-22T02:11:57;8.95;;;1.55;;
17753;SDS011;8999;48.994;9.150;2023-12-22T02:14:30;9.07;;;1.75;;
17753;SDS011;8999;48.994;9.150;2023-12-22T02:17:04;7.80;;;1.73;;
17753;SDS011;8999;48.994;9.150;2023-12-22T02:19:40;5.13;;;1.15;;
17753;SDS011;8999;48.994;9.150;2023-12-22T02:22:14;6.80;;;1.00;;
17753;SDS011;8999;48.994;9.150;2023-12-22T02:24:47;6.07;;;1.33;;
17753;SDS011;8999;48.994;9.150;2023-12-22T02:27:23;4.30;;;1.02;;
17753;SDS011;8999;48.994;9.150;2023-12-22T02:30:11;4.20;;;1.20;;
17753;SDS011;8999;48.994;9.150;2023-12-22T02:32:47;2.90;;;0.95;;
17753;SDS011;8999;48.994;9.150;2023-12-22T02:35:20;3.70;;;0.90;;
17753;SDS011;8999;48.994;9.150;2023-12-22T02:37:54;5.70;;;1.05;;
17753;SDS011;8999;48.994;9.150;2023-12-22T02:40:29;3.05;;;0.90;;
17753;SDS011;8999;48.994;9.150;2023-12-22T02:43:01;4.30;;;0.77;;
17753;SDS011;8999;48.994;9.150;2023-12-22T02:45:33;3.28;;;0.90;;
17753;SDS011;8999;48.994;9.150;2023-12-22T02:48:05;6.20;;;0.90;;
17753;SDS011;8999;48.994;9.150;2023-12-22T02:50:37;1.88;;;1.02;;
17753;SDS011;8999;48.994;9.150;2023-12-22T02:53:08;5.10;;;1.38;;
17753;SDS011;8999;48.994;9.150;2023-12-22T02:55:41;2.30;;;0.95;;
17753;SDS011;8999;48.994;9.150;2023-12-22T02:58:13;5.00;;;0.90;;
17753;SDS011;8999;48.994;9.150;2023-12-22T03:00:45;2.33;;;0.80;;
17753;SDS011;8999;48.994;9.150;2023-12-22T03:03:17;4.20;;;1.15;;
17753;SDS011;8999;48.994;9.150;2023-12-22T03:05:48;7.78;;;1.05;;
17753;SDS011;8999;48.994;9.150;2023-12-22T03:08:20;3.55;;;0.82;;
17753;SDS011;8999;48.994;9.150;2023-12-22T03:10:53;6.43;;;1.30;;
17753;SDS011;8999;48.994;9.150;2023-12-22T03:13:25;5.13;;;1.00;;
17753;SDS011;8999;48.994;9.150;2023-12-22T03:15:56;1.95;;;1.00;;
17753;SDS011;8999;48.994;9.150;2023-12-22T03:18:28;3.40;;;0.90;;
17753;SDS011;8999;48.994;9.150;2023-12-22T03:21:00;4.13;;;1.00;;
17753;SDS011;8999;48.994;9.150;2023-12-22T03:23:31;2.70;;;0.70;;
17753;SDS011;8999;48.994;9.150;2023-12-22T03:26:04;5.00;;;1.38;;
17753;SDS011;8999;48.994;9.150;2023-12-22T03:28:36;6.78;;;1.40;;
17753;SDS011;8999;48.994;9.150;2023-12-22T03:31:08;3.80;;;0.98;;
17753;SDS011;8999;48.994;9.150;2023-12-22T03:33:39;4.68;;;1.02;;
17753;SDS011;8999;48.994;9.150;2023-12-22T03:36:11;4.13;;;1.10;;
17753;SDS011;8999;48.994;9.150;2023-12-22T03:38:43;5.70;;;1.23;;
17753;SDS011;8999;48.994;9.150;2023-12-22T03:41:16;7.93;;;1.30;;
17753;SDS011;8999;48.994;9.150;2023-12-22T03:43:47;3.28;;;0.93;;
17753;SDS011;8999;48.994;9.150;2023-12-22T03:46:19;3.90;;;1.10;;
17753;SDS011;8999;48.994;9.150;2023-12-22T03:48:51;5.50;;;1.38;;
17753;SDS011;8999;48.994;9.150;2023-12-22T03:51:22;5.70;;;1.02;;
17753;SDS011;8999;48.994;9.150;2023-12-22T03:53:54;6.90;;;1.45;;
17753;SDS011;8999;48.994;9.150;2023-12-22T03:56:27;6.63;;;1.10;;
17753;SDS011;8999;48.994;9.150;2023-12-22T03:58:59;4.47;;;1.55;;
17753;SDS011;8999;48.994;9.150;2023-12-22T04:01:31;5.32;;;0.90;;
17753;SDS011;8999;48.994;9.150;2023-12-22T04:04:03;4.53;;;1.00;;
17753;SDS011;8999;48.994;9.150;2023-12-22T04:06:37;5.50;;;1.25;;
17753;SDS011;8999;48.994;9.150;2023-12-22T04:09:09;7.35;;;2.00;;
17753;SDS011;8999;48.994;9.150;2023-12-22T04:11:42;4.55;;;1.17;;
17753;SDS011;8999;48.994;9.150;2023-12-22T04:14:14;15.10;;;6.57;;
17753;SDS011;8999;48.994;9.150;2023-12-22T04:16:46;2.45;;;1.00;;
17753;SDS011;8999;48.994;9.150;2023-12-22T04:19:18;3.33;;;0.80;;
17753;SDS011;8999;48.994;9.150;2023-12-22T04:21:50;4.40;;;1.02;;
17753;SDS011;8999;48.994;9.150;2023-12-22T04:24:21;4.97;;;0.82;;
17753;SDS011;8999;48.994;9.150;2023-12-22T04:26:54;7.95;;;3.78;;
17753;SDS011;8999;48.994;9.150;2023-12-22T04:29:26;2.88;;;0.80;;
17753;SDS011;8999;48.994;9.150;2023-12-22T04:31:57;3.22;;;0.68;;
17753;SDS011;8999;48.994;9.150;2023-12-22T04:34:29;3.05;;;0.90;;
17753;SDS011;8999;48.994;9.150;2023-12-22T04:37:01;9.48;;;4.00;;
17753;SDS011;8999;48.994;9.150;2023-12-22T04:39:32;4.47;;;1.35;;
17753;SDS011;8999;48.994;9.150;2023-12-22T04:42:05;4.18;;;1.25;;
17753;SDS011;8999;48.994;9.150;2023-12-22T04:44:37;6.75;;;1.65;;
17753;SDS011;8999;48.994;9.150;2023-12-22T04:47:08;7.68;;;1.55;;
17753;SDS011;8999;48.994;9.150;2023-12-22T04:49:42;4.68;;;1.25;;
17753;SDS011;8999;48.994;9.150;2023-12-22T04:52:14;2.83;;;1.17;;
17753;SDS011;8999;48.994;9.150;2023-12-22T04:54:45;6.45;;;1.02;;
17753;SDS011;8999;48.994;9.150;2023-12-22T04:57:19;5.43;;;1.02;;
17753;SDS011;8999;48.994;9.150;2023-12-22T04:59:52;9.73;;;1.48;;
17753;SDS011;8999;48.994;9.150;2023-12-22T05:02:23;8.50;;;1.60;;
17753;SDS011;8999;48.994;9.150;2023-12-22T05:04:55;4.40;;;1.27;;
17753;SDS011;8999;48.994;9.150;2023-12-22T05:07:27;4.93;;;1.08;;
17753;SDS011;8999;48.994;9.150;2023-12-22T05:09:59;7.13;;;1.30;;
17753;SDS011;8999;48.994;9.150;2023-12-22T05:12:33;4.57;;;1.38;;
17753;SDS011;8999;48.994;9.150;2023-12-22T05:15:05;4.38;;;1.27;;
17753;SDS011;8999;48.994;9.150;2023-12-22T05:17:37;8.77;;;1.27;;
17753;SDS011;8999;48.994;9.150;2023-12-22T05:20:10;8.00;;;1.58;;
17753;SDS011;8999;48.994;9.150;2023-12-22T05:22:42;5.57;;;1.73;;
17753;SDS011;8999;48.994;9.150;2023-12-22T05:25:14;4.10;;;1.00;;
17753;SDS011;8999;48.994;9.150;2023-12-22T05:27:46;9.57;;;1.75;;
17753;SDS011;8999;48.994;9.150;2023-12-22T05:30:18;9.27;;;2.63;;
17753;SDS011;8999;48.994;9.150;2023-12-22T05:32:50;4.57;;;1.50;;
17753;SDS011;8999;48.994;9.150;2023-12-22T05:35:22;7.28;;;1.35;;
17753;SDS011;8999;48.994;9.150;2023-12-22T05:37:53;5.03;;;1.40;;
17753;SDS011;8999;48.994;9.150;2023-12-22T05:40:25;7.10;;;1.70;;
17753;SDS011;8999;48.994;9.150;2023-12-22T05:42:58;4.22;;;1.63;;
17753;SDS011;8999;48.994;9.150;2023-12-22T05:45:30;8.75;;;1.75;;
17753;SDS011;8999;48.994;9.150;2023-12-22T05:48:01;6.20;;;1.55;;
17753;SDS011;8999;48.994;9.150;2023-12-22T05:50:33;4.00;;;1.55;;
17753;SDS011;8999;48.994;9.150;2023-12-22T05:53:05;7.88;;;1.48;;
17753;SDS011;8999;48.994;9.150;2023-12-22T05:55:37;11.55;;;1.80;;
17753;SDS011;8999;48.994;9.150;2023-12-22T05:58:10;9.20;;;1.83;;
17753;SDS011;8999;48.994;9.150;2023-12-22T06:00:41;5.38;;;1.63;;
17753;SDS011;8999;48.994;9.150;2023-12-22T06:03:13;8.15;;;1.60;;
17753;SDS011;8999;48.994;9.150;2023-12-22T06:05:45;11.02;;;2.17;;
17753;SDS011;8999;48.994;9.150;2023-12-22T06:08:17;9.90;;;2.00;;
17753;SDS011;8999;48.994;9.150;2023-12-22T06:10:49;11.90;;;2.67;;
17753;SDS011;8999;48.994;9.150;2023-12-22T06:13:22;7.88;;;1.83;;
17753;SDS011;8999;48.994;9.150;2023-12-22T06:15:54;6.80;;;2.20;;
17753;SDS011;8999;48.994;9.150;2023-12-22T06:18:26;6.63;;;1.88;;
17753;SDS011;8999;48.994;9.150;2023-12-22T06:20:58;7.38;;;1.55;;
17753;SDS011;8999;48.994;9.150;2023-12-22T06:23:29;7.75;;;1.95;;
17753;SDS011;8999;48.994;9.150;2023-12-22T06:26:01;10.13;;;3.20;;
17753;SDS011;8999;48.994;9.150;2023-12-22T06:28:34;7.95;;;2.03;;
17753;SDS011;8999;48.994;9.150;2023-12-22T06:31:08;10.57;;;1.95;;
17753;SDS011;8999;48.994;9.150;2023-12-22T06:33:49;7.35;;;1.98;;
17753;SDS011;8999;48.994;9.150;2023-12-22T06:36:24;7.30;;;2.17;;
17753;SDS011;8999;48.994;9.150;2023-12-22T06:38:56;9.32;;;1.73;;
17753;SDS011;8999;48.994;9.150;2023-12-22T06:41:28;7.50;;;1.88;;
17753;SDS011;8999;48.994;9.150;2023-12-22T06:44:02;8.95;;;1.65;;
17753;SDS011;8999;48.994;9.150;2023-12-22T06:46:34;4.95;;;1.27;;
17753;SDS011;8999;48.994;9.150;2023-12-22T06:49:05;5.75;;;1.40;;
17753;SDS011;8999;48.994;9.150;2023-12-22T06:51:37;8.27;;;1.63;;
17753;SDS011;8999;48.994;9.150;2023-12-22T06:54:09;8.88;;;1.60;;
17753;SDS011;8999;48.994;9.150;2023-12-22T06:56:40;8.25;;;1.70;;
17753;SDS011;8999;48.994;9.150;2023-12-22T06:59:13;8.07;;;1.80;;
17753;SDS011;8999;48.994;9.150;2023-12-22T07:01:45;11.23;;;1.42;;
17753;SDS011;8999;48.994;9.150;2023-12-22T07:04:16;4.88;;;1.50;;
17753;SDS011;8999;48.994;9.150;2023-12-22T07:06:48;8.63;;;1.60;;
17753;SDS011;8999;48.994;9.150;2023-12-22T07:09:30;8.38;;;1.85;;
17753;SDS011;8999;48.994;9.150;2023-12-22T07:12:02;5.38;;;1.50;;
17753;SDS011;8999;48.994;9.150;2023-12-22T07:14:35;6.15;;;1.40;;
17753;SDS011;8999;48.994;9.150;2023-12-22T07:17:07;7.93;;;1.42;;
17753;SDS011;8999;48.994;9.150;2023-12-22T07:19:38;8.48;;;1.85;;
17753;SDS011;8999;48.994;9.150;2023-12-22T07:22:10;11.15;;;2.30;;
17753;SDS011;8999;48.994;9.150;2023-12-22T07:24:42;8.82;;;2.03;;
17753;SDS011;8999;48.994;9.150;2023-12-22T07:27:14;7.53;;;1.70;;
17753;SDS011;8999;48.994;9.150;2023-12-22T07:29:47;6.90;;;1.65;;
17753;SDS011;8999;48.994;9.150;2023-12-22T07:32:18;9.07;;;1.75;;
17753;SDS011;8999;48.994;9.150;2023-12-22T07:34:50;10.02;;;1.88;;
17753;SDS011;8999;48.994;9.150;2023-12-22T07:37:25;7.75;;;1.65;;
17753;SDS011;8999;48.994;9.150;2023-12-22T07:39:57;9.13;;;1.70;;
17753;SDS011;8999;48.994;9.150;2023-12-22T07:42:28;7.38;;;1.80;;
17753;SDS011;8999;48.994;9.150;2023-12-22T07:45:01;6.32;;;1.80;;
17753;SDS011;8999;48.994;9.150;2023-12-22T07:47:34;8.57;;;1.92;;
17753;SDS011;8999;48.994;9.150;2023-12-22T07:50:06;9.75;;;1.70;;
17753;SDS011;8999;48.994;9.150;2023-12-22T07:52:39;9.23;;;2.00;;
17753;SDS011;8999;48.994;9.150;2023-12-22T07:55:10;9.20;;;1.90;;
17753;SDS011;8999;48.994;9.150;2023-12-22T07:57:42;9.85;;;2.05;;
17753;SDS011;8999;48.994;9.150;2023-12-22T08:00:16;8.05;;;1.58;;
17753;SDS011;8999;48.994;9.150;2023-12-22T08:02:48;10.25;;;2.15;;
17753;SDS011;8999;48.994;9.150;2023-12-22T08:05:20;9.38;;;1.70;;
17753;SDS011;8999;48.994;9.150;2023-12-22T08:07:52;5.10;;;1.10;;
17753;SDS011;8999;48.994;9.150;2023-12-22T08:10:23;6.90;;;2.08;;
17753;SDS011;8999;48.994;9.150;2023-12-22T08:12:58;7.65;;;1.50;;
17753;SDS011;8999;48.994;9.150;2023-12-22T08:15:31;3.78;;;1.40;;
17753;SDS011;8999;48.994;9.150;2023-12-22T08:18:03;7.85;;;1.67;;
17753;SDS011;8999;48.994;9.150;2023-12-22T08:20:35;9.52;;;1.70;;
17753;SDS011;8999;48.994;9.150;2023-12-22T08:23:07;9.23;;;1.83;;
17753;SDS011;8999;48.994;9.150;2023-12-22T08:25:38;7.30;;;1.70;;
17753;SDS011;8999;48.994;9.150;2023-12-22T08:28:12;12.45;;;1.80;;
17753;SDS011;8999;48.994;9.150;2023-12-22T08:30:45;8.55;;;1.90;;
17753;SDS011;8999;48.994;9.150;2023-12-22T08:33:17;4.95;;;1.50;;
17753;SDS011;8999;48.994;9.150;2023-12-22T08:35:51;4.93;;;1.40;;
17753;SDS011;8999;48.994;9.150;2023-12-22T08:38:23;5.57;;;1.52;;
17753;SDS011;8999;48.994;9.150;2023-12-22T08:40:56;4.32;;;1.27;;
17753;SDS011;8999;48.994;9.150;2023-12-22T08:43:28;7.40;;;1.33;;
17753;SDS011;8999;48.994;9.150;2023-12-22T08:46:01;10.50;;;2.33;;
17753;SDS011;8999;48.994;9.150;2023-12-22T08:48:33;11.77;;;2.08;;
17753;SDS011;8999;48.994;9.150;2023-12-22T08:51:06;9.73;;;2.22;;
17753;SDS011;8999;48.994;9.150;2023-12-22T08:53:37;8.77;;;2.10;;
17753;SDS011;8999;48.994;9.150;2023-12-22T08:56:10;11.98;;;2.00;;
17753;SDS011;8999;48.994;9.150;2023-12-22T08:58:41;9.48;;;2.35;;
17753;SDS011;8999;48.994;9.150;2023-12-22T09:01:15;13.73;;;3.40;;
17753;SDS011;8999;48.994;9.150;2023-12-22T09:03:47;11.40;;;2.22;;
17753;SDS011;8999;48.994;9.150;2023-12-22T09:06:19;10.55;;;2.20;;
17753;SDS011;8999;48.994;9.150;2023-12-22T09:08:52;7.07;;;1.88;;
17753;SDS011;8999;48.994;9.150;2023-12-22T09:11:24;7.13;;;1.85;;
17753;SDS011;8999;48.994;9.150;2023-12-22T09:13:56;7.32;;;2.40;;
17753;SDS011;8999;48.994;9.150;2023-12-22T09:16:29;12.07;;;2.17;;
17753;SDS011;8999;48.994;9.150;2023-12-22T09:19:01;19.27;;;3.78;;
17753;SDS011;8999;48.994;9.150;2023-12-22T09:21:33;10.95;;;3.05;;
17753;SDS011;8999;48.994;9.150;2023-12-22T09:24:05;14.25;;;2.83;;
17753;SDS011;8999;48.994;9.150;2023-12-22T09:26:36;13.60;;;3.42;;
17753;SDS011;8999;48.994;9.150;2023-12-22T09:29:08;18.73;;;2.90;;
17753;SDS011;8999;48.994;9.150;2023-12-22T09:31:41;16.10;;;3.03;;
17753;SDS011;8999;48.994;9.150;2023-12-22T09:34:13;9.93;;;2.70;;
17753;SDS011;8999;48.994;9.150;2023-12-22T09:36:44;15.43;;;2.53;;
17753;SDS011;8999;48.994;9.150;2023-12-22T09:39:16;12.88;;;3.42;;
17753;SDS011;8999;48.994;9.150;2023-12-22T09:41:48;11.13;;;2.38;;
17753;SDS011;8999;48.994;9.150;2023-12-22T09:44:20;14.10;;;2.63;;
17753;SDS011;8999;48.994;9.150;2023-12-22T09:46:54;13.30;;;3.17;;
17753;SDS011;8999;48.994;9.150;2023-12-22T09:49:27;14.75;;;3.10;;
17753;SDS011;8999;48.994;9.150;2023-12-22T09:51:59;13.57;;;2.92;;
17753;SDS011;8999;48.994;9.150;2023-12-22T09:54:33;13.18;;;3.10;;
17753;SDS011;8999;48.994;9.150;2023-12-22T09:57:05;13.20;;;2.92;;
17753;SDS011;8999;48.994;9.150;2023-12-22T09:59:36;14.35;;;4.68;;
17753;SDS011;8999;48.994;9.150;2023-12-22T10:02:10;10.57;;;3.00;;
17753;SDS011;8999;48.994;9.150;2023-12-22T10:04:42;13.73;;;3.63;;
17753;SDS011;8999;48.994;9.150;2023-12-22T10:07:14;24.70;;;4.85;;
17753;SDS011;8999;48.994;9.150;2023-12-22T10:09:47;15.57;;;3.33;;
17753;SDS011;8999;48.994;9.150;2023-12-22T10:12:20;12.23;;;3.30;;
17753;SDS011;8999;48.994;9.150;2023-12-22T10:14:53;20.58;;;4.00;;
17753;SDS011;8999;48.994;9.150;2023-12-22T10:17:26;13.07;;;2.80;;
17753;SDS011;8999;48.994;9.150;2023-12-22T10:19:58;13.85;;;2.70;;
17753;SDS011;8999;48.994;9.150;2023-12-22T10:22:30;13.70;;;3.00;;
17753;SDS011;8999;48.994;9.150;2023-12-22T10:25:02;19.17;;;3.00;;
17753;SDS011;8999;48.994;9.150;2023-12-22T10:27:35;14.32;;;2.67;;
17753;SDS011;8999;48.994;9.150;2023-12-22T10:30:08;14.73;;;2.72;;
17753;SDS011;8999;48.994;9.150;2023-12-22T10:32:42;16.15;;;2.95;;
17753;SDS011;8999;48.994;9.150;2023-12-22T10:35:14;17.90;;;2.75;;
17753;SDS011;8999;48.994;9.150;2023-12-22T10:37:46;11.27;;;3.15;;
17753;SDS011;8999;48.994;9.150;2023-12-22T10:40:18;13.98;;;2.30;;
17753;SDS011;8999;48.994;9.150;2023-12-22T10:42:50;8.82;;;2.83;;
17753;SDS011;8999;48.994;9.150;2023-12-22T10:45:22;12.27;;;2.42;;
17753;SDS011;8999;48.994;9.150;2023-12-22T10:47:56;16.63;;;2.63;;
17753;SDS011;8999;48.994;9.150;2023-12-22T10:50:29;13.15;;;3.30;;
17753;SDS011;8999;48.994;9.150;2023-12-22T10:53:05;8.80;;;2.92;;
17753;SDS011;8999;48.994;9.150;2023-12-22T10:55:37;15.00;;;4.00;;
17753;SDS011;8999;48.994;9.150;2023-12-22T10:58:08;10.30;;;2.95;;
17753;SDS011;8999;48.994;9.150;2023-12-22T11:00:40;17.58;;;2.97;;
17753;SDS011;8999;48.994;9.150;2023-12-22T11:03:16;9.77;;;2.60;;
17753;SDS011;8999;48.994;9.150;2023-12-22T11:05:48;16.83;;;2.30;;
17753;SDS011;8999;48.994;9.150;2023-12-22T11:08:22;14.68;;;2.30;;
17753;SDS011;8999;48.994;9.150;2023-12-22T11:10:57;12.25;;;2.20;;
17753;SDS011;8999;48.994;9.150;2023-12-22T11:13:28;9.50;;;2.65;;
17753;SDS011;8999;48.994;9.150;2023-12-22T11:16:00;17.02;;;5.95;;
17753;SDS011;8999;48.994;9.150;2023-12-22T11:18:33;15.77;;;4.70;;
17753;SDS011;8999;48.994;9.150;2023-12-22T11:21:06;16.52;;;2.78;;
17753;SDS011;8999;48.994;9.150;2023-12-22T11:23:39;9.75;;;2.00;;
17753;SDS011;8999;48.994;9.150;2023-12-22T11:26:11;12.25;;;2.40;;
17753;SDS011;8999;48.994;9.150;2023-12-22T11:28:44;9.05;;;2.13;;
17753;SDS011;8999;48.994;9.150;2023-12-22T11:31:16;8.95;;;1.90;;
17753;SDS011;8999;48.994;9.150;2023-12-22T11:33:50;6.43;;;2.13;;
17753;SDS011;8999;48.994;9.150;2023-12-22T11:36:22;7.78;;;2.15;;
17753;SDS011;8999;48.994;9.150;2023-12-22T11:38:54;10.25;;;1.80;;
17753;SDS011;8999;48.994;9.150;2023-12-22T11:41:26;13.27;;;2.30;;
17753;SDS011;8999;48.994;9.150;2023-12-22T11:44:00;5.88;;;1.67;;
17753;SDS011;8999;48.994;9.150;2023-12-22T11:46:33;12.48;;;2.45;;
17753;SDS011;8999;48.994;9.150;2023-12-22T11:49:06;9.35;;;2.22;;
17753;SDS011;8999;48.994;9.150;2023-12-22T11:51:38;7.38;;;2.20;;
17753;SDS011;8999;48.994;9.150;2023-12-22T12:00:05;8.80;;;1.33;;
17753;SDS011;8999;48.994;9.150;2023-12-22T12:02:39;6.82;;;1.90;;
17753;SDS011;8999;48.994;9.150;2023-12-22T12:05:13;6.90;;;1.40;;
17753;SDS011;8999;48.994;9.150;2023-12-22T12:07:45;6.28;;;2.15;;
17753;SDS011;8999;48.994;9.150;2023-12-22T12:13:26;6.88;;;1.75;;
17753;SDS011;8999;48.994;9.150;2023-12-22T12:15:59;6.38;;;1.58;;
17753;SDS011;8999;48.994;9.150;2023-12-22T12:18:32;5.53;;;1.48;;
17753;SDS011;8999;48.994;9.150;2023-12-22T12:21:06;5.45;;;1.20;;
17753;SDS011;8999;48.994;9.150;2023-12-22T12:23:39;4.47;;;1.63;;
17753;SDS011;8999;48.994;9.150;2023-12-22T12:26:12;5.57;;;1.50;;
17753;SDS011;8999;48.994;9.150;2023-12-22T12:28:44;5.35;;;1.80;;
17753;SDS011;8999;48.994;9.150;2023-12-22T12:31:17;2.47;;;0.90;;
17753;SDS011;8999;48.994;9.150;2023-12-22T12:33:49;5.20;;;1.50;;
17753;SDS011;8999;48.994;9.150;2023-12-22T12:36:22;4.00;;;0.88;;
17753;SDS011;8999;48.994;9.150;2023-12-22T12:38:54;3.45;;;1.10;;
17753;SDS011;8999;48.994;9.150;2023-12-22T12:41:28;3.50;;;1.10;;
17753;SDS011;8999;48.994;9.150;2023-12-22T12:44:02;4.57;;;1.58;;
17753;SDS011;8999;48.994;9.150;2023-12-22T12:46:35;4.55;;;1.00;;
17753;SDS011;8999;48.994;9.150;2023-12-22T12:49:07;2.30;;;0.80;;
17753;SDS011;8999;48.994;9.150;2023-12-22T12:51:43;3.60;;;1.05;;
17753;SDS011;8999;48.994;9.150;2023-12-22T12:54:16;1.63;;;0.82;;
17753;SDS011;8999;48.994;9.150;2023-12-22T12:56:48;2.33;;;0.80;;
17753;SDS011;8999;48.994;9.150;2023-12-22T12:59:19;1.23;;;0.60;;
17753;SDS011;8999;48.994;9.150;2023-12-22T13:01:52;3.33;;;0.95;;
17753;SDS011;8999;48.994;9.150;2023-12-22T13:04:24;2.38;;;0.80;;
17753;SDS011;8999;48.994;9.150;2023-12-22T13:07:09;2.50;;;0.98;;
17753;SDS011;8999;48.994;9.150;2023-12-22T13:09:43;3.65;;;0.80;;
17753;SDS011;8999;48.994;9.150;2023-12-22T13:12:14;0.98;;;0.65;;
17753;SDS011;8999;48.994;9.150;2023-12-22T13:14:46;1.45;;;0.80;;
17753;SDS011;8999;48.994;9.150;2023-12-22T13:17:18;2.33;;;0.70;;
17753;SDS011;8999;48.994;9.150;2023-12-22T13:19:50;2.65;;;1.08;;
17753;SDS011;8999;48.994;9.150;2023-12-22T13:22:23;1.83;;;1.00;;
17753;SDS011;8999;48.994;9.150;2023-12-22T13:25:00;2.28;;;1.10;;
17753;SDS011;8999;48.994;9.150;2023-12-22T13:27:43;1.42;;;0.73;;
17753;SDS011;8999;48.994;9.150;2023-12-22T13:30:18;4.03;;;0.90;;
17753;SDS011;8999;48.994;9.150;2023-12-22T13:33:03;2.20;;;1.13;;
17753;SDS011;8999;48.994;9.150;2023-12-22T13:35:35;1.63;;;0.77;;
17753;SDS011;8999;48.994;9.150;2023-12-22T13:38:09;2.40;;;1.45;;
17753;SDS011;8999;48.994;9.150;2023-12-22T13:40:44;2.08;;;1.08;;
17753;SDS011;8999;48.994;9.150;2023-12-22T13:43:16;1.65;;;0.90;;
17753;SDS011;8999;48.994;9.150;2023-12-22T13:45:49;2.45;;;1.42;;
17753;SDS011;8999;48.994;9.150;2023-12-22T13:48:20;1.45;;;0.70;;
17753;SDS011;8999;48.994;9.150;2023-12-22T13:50:56;1.63;;;0.70;;
17753;SDS011;8999;48.994;9.150;2023-12-22T13:53:30;3.05;;;0.95;;
17753;SDS011;8999;48.994;9.150;2023-12-22T13:56:01;1.40;;;0.65;;
17753;SDS011;8999;48.994;9.150;2023-12-22T13:58:33;3.33;;;0.82;;
17753;SDS011;8999;48.994;9.150;2023-12-22T14:01:15;1.77;;;0.70;;
17753;SDS011;8999;48.994;9.150;2023-12-22T14:03:47;1.25;;;1.02;;
17753;SDS011;8999;48.994;9.150;2023-12-22T14:06:20;2.40;;;0.80;;
17753;SDS011;8999;48.994;9.150;2023-12-22T14:08:53;0.70;;;0.70;;
17753;SDS011;8999;48.994;9.150;2023-12-22T14:11:24;2.92;;;1.00;;
17753;SDS011;8999;48.994;9.150;2023-12-22T14:13:56;1.00;;;0.80;;
17753;SDS011;8999;48.994;9.150;2023-12-22T14:16:28;0.90;;;0.60;;
17753;SDS011;8999;48.994;9.150;2023-12-22T14:19:00;3.22;;;1.17;;
17753;SDS011;8999;48.994;9.150;2023-12-22T14:21:31;1.35;;;0.70;;
17753;SDS011;8999;48.994;9.150;2023-12-22T14:24:04;1.92;;;1.05;;
17753;SDS011;8999;48.994;9.150;2023-12-22T14:26:51;1.80;;;0.70;;
17753;SDS011;8999;48.994;9.150;2023-12-22T14:29:23;2.33;;;0.77;;
17753;SDS011;8999;48.994;9.150;2023-12-22T14:31:55;4.18;;;2.60;;
17753;SDS011;8999;48.994;9.150;2023-12-22T14:34:26;0.70;;;0.60;;
17753;SDS011;8999;48.994;9.150;2023-12-22T14:37:00;1.00;;;0.60;;
17753;SDS011;8999;48.994;9.150;2023-12-22T14:39:33;2.00;;;1.02;;
17753;SDS011;8999;48.994;9.150;2023-12-22T14:42:05;0.95;;;0.60;;
17753;SDS011;8999;48.994;9.150;2023-12-22T14:44:37;1.92;;;1.02;;
17753;SDS011;8999;48.994;9.150;2023-12-22T14:47:09;3.25;;;1.23;;
17753;SDS011;8999;48.994;9.150;2023-12-22T14:49:41;0.50;;;0.50;;
17753;SDS011;8999;48.994;9.150;2023-12-22T14:52:12;0.73;;;0.60;;
17753;SDS011;8999;48.994;9.150;2023-12-22T14:54:46;1.77;;;0.60;;
17753;SDS011;8999;48.994;9.150;2023-12-22T14:57:17;0.68;;;0.68;;
17753;SDS011;8999;48.994;9.150;2023-12-22T14:59:49;1.35;;;0.70;;
17753;SDS011;8999;48.994;9.150;2023-12-22T15:02:21;1.00;;;0.60;;
17753;SDS011;8999;48.994;9.150;2023-12-22T15:04:53;0.77;;;0.60;;
17753;SDS011;8999;48.994;9.150;2023-12-22T15:07:25;1.00;;;0.57;;
17753;SDS011;8999;48.994;9.150;2023-12-22T15:09:58;1.65;;;0.60;;
17753;SDS011;8999;48.994;9.150;2023-12-22T15:12:30;3.45;;;1.73;;
17753;SDS011;8999;48.994;9.150;2023-12-22T15:15:06;4.38;;;2.75;;
17753;SDS011;8999;48.994;9.150;2023-12-22T15:17:37;1.05;;;0.60;;
17753;SDS011;8999;48.994;9.150;2023-12-22T15:20:09;1.40;;;0.80;;
17753;SDS011;8999;48.994;9.150;2023-12-22T15:22:42;1.88;;;0.80;;
17753;SDS011;8999;48.994;9.150;2023-12-22T15:25:15;0.80;;;0.60;;
17753;SDS011;8999;48.994;9.150;2023-12-22T15:27:48;14.48;;;8.05;;
17753;SDS011;8999;48.994;9.150;2023-12-22T15:30:20;1.10;;;0.77;;
17753;SDS011;8999;48.994;9.150;2023-12-22T15:32:52;0.95;;;0.80;;
17753;SDS011;8999;48.994;9.150;2023-12-22T15:35:23;1.70;;;0.63;;
17753;SDS011;8999;48.994;9.150;2023-12-22T15:37:55;0.80;;;0.75;;
17753;SDS011;8999;48.994;9.150;2023-12-22T15:40:28;1.90;;;0.57;;